INDIA METEOROLOGICAL DEPARTMENT, R.M.C. NEW DELHI
Dated:17 - 9 - 2021
METARS OF ALTERNATE AIRPORTS
Delhi      
VIDP 170300Z 07010KT 3500 BR SCT035 SCT100 27/24 Q1005 NOSIG=
Lucknow    
VILK 170330Z 10010KT 3500 BR SCT018 SCT025 BKN100 26/24 Q1002 NOSIG=
Jaipur     
VIJP 170330Z 02007KT 2500 HZ SCT030 SCT100 27/21 Q1005 BECMG 3000 HZ=
Ahmedabad  
VAAH 170300Z 21005KT 1500 BR SCT015 SCT020 OVC080 26/26 Q1004 NOSIG=
Udaipur    
VAUD 170300Z 14002KT 2500 HZ NSC 26/24 Q1006 BECMG 3000 HZ=
Mumbai     
VABB 170330Z 21010KT 3000 HZ SCT020 SCT025 29/25 Q1007 NOSIG=